Time;durP1;ratioP1;P1;durP2;ratioP2;P2;SDS_P1;SDS_P2;PMS_P1;PMS_P2;Temp;Humidity;BMP_temperature;BMP_pressure;BME280_temperature;BME280_humidity;BME280_pressure;Samples;Min_cycle;Max_cycle;Signal;HPM_P1;HPM_P2
2023/06/05 00:01:46;;;;;;;4.30;2.90;;;;;;;10.14;62.74;101356.13;105624;1268;99080;-81
2023/06/05 00:04:32;;;;;;;5.30;3.10;;;;;;;10.10;63.11;101356.67;105591;1268;97971;-80
2023/06/05 00:07:17;;;;;;;4.50;2.90;;;;;;;10.05;63.33;101354.18;105475;1269;97903;-80
2023/06/05 00:10:05;;;;;;;4.10;2.70;;;;;;;10.01;63.45;101358.19;105446;1277;98595;-81
2023/06/05 00:12:51;;;;;;;5.20;3.30;;;;;;;9.97;63.46;101358.22;105631;1269;102733;-81
2023/06/05 00:15:37;;;;;;;5.50;3.40;;;;;;;9.93;63.42;101357.45;105571;1269;100356;-80
2023/06/05 00:18:22;;;;;;;5.50;2.70;;;;;;;9.87;63.54;101358.96;105700;1268;97972;-80
2023/06/05 00:21:08;;;;;;;6.60;2.90;;;;;;;9.79;63.65;101361.27;105657;1268;97945;-80
2023/06/05 00:23:54;;;;;;;5.00;2.80;;;;;;;9.73;63.68;101358.73;105640;1273;97978;-81
2023/06/05 00:26:40;;;;;;;4.60;3.00;;;;;;;9.67;63.56;101358.80;105584;1274;101385;-80
2023/06/05 00:29:25;;;;;;;5.10;2.70;;;;;;;9.59;63.69;101358.08;105756;1269;100680;-80
2023/06/05 00:32:11;;;;;;;8.30;2.90;;;;;;;9.52;63.71;101357.41;105445;1268;98976;-81
2023/06/05 00:34:57;;;;;;;4.40;2.70;;;;;;;9.46;63.66;101357.42;105713;1273;97862;-81
2023/06/05 00:37:46;;;;;;;4.70;2.60;;;;;;;9.37;63.71;101356.52;105530;1268;96092;-81
2023/06/05 00:40:32;;;;;;;3.60;3.00;;;;;;;9.31;63.82;101355.23;105772;1269;102652;-80
2023/06/05 00:43:18;;;;;;;6.20;2.50;;;;;;;9.24;64.17;101356.42;105692;1269;100382;-80
2023/06/05 00:46:04;;;;;;;4.10;2.90;;;;;;;9.18;64.37;101354.58;105574;1270;97971;-79
2023/06/05 00:48:50;;;;;;;4.70;2.50;;;;;;;9.15;64.68;101355.30;105482;1269;98050;-80
2023/06/05 00:51:36;;;;;;;4.80;2.70;;;;;;;9.12;65.00;101354.94;105688;1269;98523;-81
2023/06/05 00:54:22;;;;;;;4.20;2.80;;;;;;;9.10;65.17;101355.08;105627;1269;102631;-80
2023/06/05 00:57:09;;;;;;;3.70;2.60;;;;;;;9.08;65.15;101356.38;105669;1271;99085;-80
2023/06/05 00:59:55;;;;;;;4.60;2.60;;;;;;;9.04;65.43;101355.72;105747;1269;99027;-80
2023/06/05 01:02:41;;;;;;;7.00;2.60;;;;;;;9.00;65.09;101350.29;105518;1274;98010;-81
2023/06/05 01:05:27;;;;;;;4.40;3.30;;;;;;;8.94;65.04;101349.61;105530;1273;97894;-80
2023/06/05 01:08:14;;;;;;;4.30;2.40;;;;;;;8.86;65.10;101348.52;105665;1271;101376;-81
2023/06/05 01:11:01;;;;;;;4.40;2.70;;;;;;;8.81;65.20;101346.35;105719;1272;99072;-82
2023/06/05 01:14:00;;;;;;;3.00;2.20;;;;;;;8.77;65.14;101347.23;105782;1271;99039;-80
2023/06/05 01:16:49;;;;;;;4.60;3.20;;;;;;;8.72;65.18;101346.98;105627;1269;98036;-80
2023/06/05 01:19:34;;;;;;;3.00;2.40;;;;;;;8.69;65.44;101346.44;105683;1269;97523;-81
2023/06/05 01:22:20;;;;;;;3.60;2.50;;;;;;;8.65;65.63;101345.17;105786;1273;101414;-80
2023/06/05 01:25:09;;;;;;;7.00;2.90;;;;;;;8.62;66.11;101347.63;105716;1273;99091;-81
2023/06/05 01:28:01;;;;;;;4.90;2.90;;;;;;;8.61;66.39;101348.26;105480;1269;98503;-81
2023/06/05 01:31:16;;;;;;;3.20;2.70;;;;;;;8.61;66.45;101344.95;105828;1269;97906;-80
2023/06/05 01:34:08;;;;;;;5.70;2.70;;;;;;;8.56;66.72;101347.15;105728;1269;98037;-82
2023/06/05 01:36:57;;;;;;;6.00;2.70;;;;;;;8.49;66.64;101348.22;105647;1271;101407;-81
2023/06/05 01:39:45;;;;;;;5.90;3.20;;;;;;;8.42;66.36;101347.71;105815;1269;100613;-80
2023/06/05 01:42:31;;;;;;;5.00;2.70;;;;;;;8.35;66.58;101348.25;105511;1274;98012;-81
2023/06/05 01:45:18;;;;;;;4.40;2.90;;;;;;;8.28;66.80;101344.75;105719;1269;97888;-80
2023/06/05 01:48:05;;;;;;;4.80;2.80;;;;;;;8.26;67.04;101345.95;105549;1268;97901;-81
2023/06/05 01:50:55;;;;;;;5.00;2.80;;;;;;;8.25;67.09;101347.64;105859;1270;102157;-81
2023/06/05 01:53:41;;;;;;;3.70;2.80;;;;;;;8.24;67.27;101345.81;105863;1274;99119;-81
2023/06/05 01:56:30;;;;;;;3.90;2.60;;;;;;;8.20;67.43;101343.67;105662;1269;99006;-80
2023/06/05 01:59:15;;;;;;;3.30;3.00;;;;;;;8.16;67.40;101344.98;105709;1274;97983;-81
2023/06/05 02:02:03;;;;;;;4.40;2.80;;;;;;;8.09;67.06;101345.17;105531;1275;98302;-83
2023/06/05 02:04:49;;;;;;;6.70;3.20;;;;;;;8.02;67.06;101349.48;105662;1272;101358;-81
2023/06/05 02:07:38;;;;;;;5.60;3.20;;;;;;;7.97;67.45;101351.86;105780;1271;99998;-81
2023/06/05 02:10:27;;;;;;;4.80;2.90;;;;;;;7.96;67.54;101350.61;105815;1273;98424;-81
2023/06/05 02:13:15;;;;;;;2.90;2.60;;;;;;;7.91;67.41;101349.44;105740;1272;97794;-81
2023/06/05 02:16:00;;;;;;;3.60;2.80;;;;;;;7.87;67.43;101351.42;105933;1269;98494;-82
2023/06/05 02:18:48;;;;;;;4.50;2.50;;;;;;;7.83;67.25;101350.48;105797;1269;101359;-80
2023/06/05 02:21:33;;;;;;;6.70;3.00;;;;;;;7.78;67.37;101352.47;105668;1270;99132;-81
2023/06/05 02:24:19;;;;;;;5.20;2.90;;;;;;;7.75;67.39;101352.16;105734;1274;99023;-81
2023/06/05 02:27:05;;;;;;;4.30;2.60;;;;;;;7.70;67.29;101351.38;105913;1273;97974;-80
2023/06/05 02:29:51;;;;;;;3.40;2.90;;;;;;;7.66;67.71;101346.64;105763;1269;98513;-80
2023/06/05 02:32:41;;;;;;;3.80;2.80;;;;;;;7.64;67.60;101345.74;105860;1270;103195;-80
2023/06/05 02:35:26;;;;;;;5.90;2.70;;;;;;;7.60;67.92;101348.40;105549;1276;99388;-80
2023/06/05 02:38:12;;;;;;;4.40;2.70;;;;;;;7.59;68.26;101348.55;105664;1269;99061;-80
2023/06/05 02:40:59;;;;;;;4.00;2.80;;;;;;;7.60;68.51;101347.95;105805;1274;97885;-81
2023/06/05 02:43:45;;;;;;;4.50;3.10;;;;;;;7.59;68.37;101350.02;105709;1269;98551;-80
2023/06/05 02:46:31;;;;;;;3.20;2.60;;;;;;;7.56;68.69;101348.98;105565;1272;102646;-80
2023/06/05 02:49:17;;;;;;;5.00;2.80;;;;;;;7.56;68.66;101348.66;105501;1268;99662;-80
2023/06/05 02:52:03;;;;;;;5.40;2.90;;;;;;;7.58;68.68;101346.35;105154;1274;98469;-79
2023/06/05 02:54:49;;;;;;;4.60;3.00;;;;;;;7.59;68.87;101342.52;105099;1269;97980;-81
2023/06/05 02:57:41;;;;;;;6.30;3.90;;;;;;;7.60;68.74;101340.13;105183;1274;97980;-82
2023/06/05 03:00:27;;;;;;;4.40;2.90;;;;;;;7.60;69.46;101343.13;105069;1274;102641;-81
2023/06/05 03:03:16;;;;;;;3.10;2.70;;;;;;;7.61;69.70;101346.27;105315;1276;99724;-81
2023/06/05 03:06:06;;;;;;;5.70;3.30;;;;;;;7.60;69.63;101345.60;105171;1269;97903;-80
2023/06/05 03:08:55;;;;;;;6.50;3.10;;;;;;;7.59;69.60;101345.88;105400;1269;97950;-81
2023/06/05 03:11:41;;;;;;;3.50;2.90;;;;;;;7.57;69.76;101346.96;105422;1269;98514;-80
2023/06/05 03:14:27;;;;;;;4.60;3.20;;;;;;;7.55;69.92;101346.70;105442;1271;109559;-80
2023/06/05 03:17:13;;;;;;;6.00;3.10;;;;;;;7.54;70.02;101351.14;105638;1273;100362;-81
2023/06/05 03:19:58;;;;;;;7.30;3.30;;;;;;;7.57;70.21;101350.92;105653;1267;97965;-80
2023/06/05 03:22:45;;;;;;;3.30;3.00;;;;;;;7.58;70.51;101351.14;105671;1272;97999;-80
2023/06/05 03:25:30;;;;;;;5.40;3.20;;;;;;;7.59;70.46;101354.45;105256;1282;97975;-80
2023/06/05 03:28:21;;;;;;;3.10;2.80;;;;;;;7.59;70.70;101350.20;105703;1268;101383;-80
2023/06/05 03:31:07;;;;;;;3.90;2.70;;;;;;;7.60;70.96;101349.37;105692;1270;99687;-79
2023/06/05 03:33:58;;;;;;;4.20;3.00;;;;;;;7.64;71.07;101351.44;105566;1276;106355;-81
2023/06/05 03:36:44;;;;;;;4.30;2.90;;;;;;;7.66;71.22;101350.34;105746;1269;98050;-81
2023/06/05 03:39:31;;;;;;;7.70;2.70;;;;;;;7.69;71.55;101352.54;105592;1273;97913;-80
2023/06/05 03:42:16;;;;;;;5.50;3.30;;;;;;;7.73;71.91;101352.66;105554;1275;103345;-81
2023/06/05 03:45:03;;;;;;;4.60;3.20;;;;;;;7.78;72.18;101354.11;105669;1274;99195;-82
2023/06/05 03:47:49;;;;;;;3.00;2.70;;;;;;;7.86;72.52;101355.68;105865;1272;99115;-81
2023/06/05 03:50:37;;;;;;;4.30;2.90;;;;;;;7.95;72.73;101354.40;105795;1270;99250;-81
2023/06/05 03:53:23;;;;;;;4.40;2.70;;;;;;;8.05;72.91;101354.27;105780;1272;96163;-81
2023/06/05 03:56:12;;;;;;;4.10;3.60;;;;;;;8.14;73.21;101355.66;105806;1275;103146;-81
2023/06/05 03:58:58;;;;;;;5.90;3.60;;;;;;;8.24;73.42;101354.48;105769;1272;99123;-83
2023/06/05 04:01:44;;;;;;;4.10;3.50;;;;;;;8.35;73.94;101357.70;105733;1269;97979;-82
2023/06/05 04:04:30;;;;;;;5.60;3.80;;;;;;;8.47;74.42;101356.85;105697;1273;97913;-81
2023/06/05 04:07:15;;;;;;;5.10;3.00;;;;;;;8.59;74.56;101360.91;105569;1273;98510;-80
2023/06/05 04:10:01;;;;;;;4.10;3.00;;;;;;;8.71;74.73;101356.17;105716;1271;101925;-80
2023/06/05 04:12:46;;;;;;;5.40;3.20;;;;;;;8.83;75.20;101354.55;105649;1271;99055;-81
2023/06/05 04:15:33;;;;;;;5.80;3.90;;;;;;;8.94;75.90;101354.66;105655;1269;98653;-82
2023/06/05 04:18:20;;;;;;;6.10;3.90;;;;;;;9.04;76.09;101354.48;105516;1269;98109;-82
2023/06/05 04:21:06;;;;;;;6.30;3.70;;;;;;;9.15;76.18;101354.36;105750;1272;98593;-82
2023/06/05 04:23:52;;;;;;;9.00;3.90;;;;;;;9.29;76.54;101359.34;105893;1270;101356;-82
2023/06/05 04:26:43;;;;;;;6.40;3.70;;;;;;;9.44;77.07;101365.53;105683;1274;99097;-82
2023/06/05 04:29:32;;;;;;;6.10;4.10;;;;;;;9.60;77.51;101364.27;105779;1270;97983;-82
2023/06/05 04:32:18;;;;;;;7.40;3.70;;;;;;;9.75;77.47;101364.43;105671;1270;97949;-82
2023/06/05 04:35:05;;;;;;;10.40;4.90;;;;;;;9.90;77.45;101365.63;105661;1271;97919;-81
2023/06/05 04:37:51;;;;;;;8.90;5.00;;;;;;;10.05;77.53;101367.95;105704;1270;101356;-81
2023/06/05 04:40:37;;;;;;;6.20;4.20;;;;;;;10.20;77.64;101368.48;105855;1272;99475;-83
2023/06/05 04:43:23;;;;;;;5.70;3.80;;;;;;;10.35;77.65;101368.64;105744;1270;97977;-82
2023/06/05 04:46:09;;;;;;;5.70;4.30;;;;;;;10.49;77.88;101370.23;105610;1270;97972;-82
2023/06/05 04:48:57;;;;;;;7.60;4.00;;;;;;;10.64;77.69;101371.12;105686;1270;98623;-81
2023/06/05 04:51:43;;;;;;;4.60;3.70;;;;;;;10.79;77.52;101368.71;105776;1273;102002;-81
2023/06/05 04:54:30;;;;;;;6.60;3.60;;;;;;;10.96;77.10;101367.77;105700;1273;99113;-81
2023/06/05 04:57:16;;;;;;;10.30;3.90;;;;;;;11.12;77.28;101367.63;105434;1270;97967;-82
2023/06/05 05:00:07;;;;;;;8.00;4.20;;;;;;;11.29;77.33;101367.48;105399;1275;98054;-82
2023/06/05 05:02:53;;;;;;;9.40;3.90;;;;;;;11.47;76.85;101366.73;105581;1271;99584;-82
2023/06/05 05:05:40;;;;;;;10.10;4.30;;;;;;;11.64;76.13;101367.65;105532;1270;102427;-81
2023/06/05 05:08:27;;;;;;;10.50;4.10;;;;;;;11.82;76.16;101368.59;105633;1270;99221;-81
2023/06/05 05:11:14;;;;;;;7.00;4.10;;;;;;;11.99;75.60;101370.46;105405;1270;99041;-81
2023/06/05 05:14:00;;;;;;;9.90;3.90;;;;;;;12.18;75.57;101373.70;105432;1274;98774;-81
2023/06/05 05:16:49;;;;;;;6.20;3.70;;;;;;;12.36;74.59;101373.70;105454;1270;99264;-81
2023/06/05 05:19:34;;;;;;;5.60;3.60;;;;;;;12.54;73.60;101372.32;105575;1273;101355;-81
2023/06/05 05:22:20;;;;;;;7.40;3.90;;;;;;;12.70;73.18;101372.27;105598;1270;99104;-81
2023/06/05 05:25:06;;;;;;;7.20;3.70;;;;;;;12.86;72.80;101369.80;105533;1274;97970;-81
2023/06/05 05:27:53;;;;;;;8.70;3.80;;;;;;;13.02;72.04;101366.50;105561;1275;97968;-81
2023/06/05 05:30:38;;;;;;;6.50;3.40;;;;;;;13.18;72.00;101369.25;105561;1270;97830;-82
2023/06/05 05:33:25;;;;;;;6.30;3.30;;;;;;;13.35;71.30;101367.58;105724;1273;102658;-80
2023/06/05 05:36:11;;;;;;;8.10;3.50;;;;;;;13.50;70.51;101368.54;105662;1273;99130;-81
2023/06/05 05:38:56;;;;;;;7.80;3.50;;;;;;;13.67;70.35;101369.56;105462;1270;98934;-82
2023/06/05 05:41:42;;;;;;;5.90;3.30;;;;;;;13.85;69.84;101371.13;105456;1270;97976;-81
2023/06/05 05:44:27;;;;;;;6.00;3.50;;;;;;;14.00;69.64;101368.12;105676;1269;96820;-82
2023/06/05 05:47:13;;;;;;;5.20;3.30;;;;;;;14.17;69.45;101369.83;105624;1273;101370;-81
2023/06/05 05:49:58;;;;;;;8.90;3.30;;;;;;;14.32;69.22;101371.30;105575;1273;99142;-81
2023/06/05 05:52:44;;;;;;;8.90;3.40;;;;;;;14.47;68.07;101364.70;105572;1270;97980;-81
2023/06/05 05:55:30;;;;;;;7.40;3.20;;;;;;;14.63;68.35;101364.21;105664;1270;98442;-82
2023/06/05 05:58:16;;;;;;;8.20;3.30;;;;;;;14.80;68.42;101364.39;105490;1270;98546;-83
2023/06/05 06:01:02;;;;;;;5.20;2.60;;;;;;;14.98;67.43;101365.36;105370;1270;101329;-81
2023/06/05 06:03:48;;;;;;;7.60;3.00;;;;;;;15.15;67.25;101363.08;105505;1269;99068;-81
2023/06/05 06:06:34;;;;;;;7.80;3.20;;;;;;;15.33;66.32;101366.14;105445;1269;97996;-82
2023/06/05 06:09:20;;;;;;;7.00;2.50;;;;;;;15.51;65.25;101364.55;105486;1270;98092;-83
2023/06/05 06:12:07;;;;;;;7.90;2.50;;;;;;;15.65;64.11;101365.98;105427;1269;98001;-82
2023/06/05 06:14:56;;;;;;;6.00;2.80;;;;;;;15.82;63.75;101370.01;105528;1270;101406;-81
2023/06/05 06:17:42;;;;;;;6.10;2.70;;;;;;;15.97;62.20;101370.14;105559;1270;99104;-82
2023/06/05 06:20:28;;;;;;;5.00;2.50;;;;;;;16.13;62.45;101369.98;105433;1272;97980;-82
2023/06/05 06:23:14;;;;;;;4.50;2.40;;;;;;;16.30;62.23;101372.43;105501;1269;99251;-82
2023/06/05 06:25:59;;;;;;;2.90;2.00;;;;;;;16.46;60.99;101369.55;105282;1271;97999;-82
2023/06/05 06:28:45;;;;;;;7.40;2.30;;;;;;;16.59;60.11;101368.02;105272;1273;101412;-81
2023/06/05 06:31:31;;;;;;;6.10;2.10;;;;;;;16.73;60.62;101368.94;105432;1271;99119;-81
2023/06/05 06:34:17;;;;;;;4.30;2.10;;;;;;;16.88;59.38;101372.13;105418;1271;97955;-82
2023/06/05 06:37:03;;;;;;;8.40;2.90;;;;;;;17.02;58.81;101370.84;105502;1273;98076;-83
2023/06/05 06:39:49;;;;;;;7.10;2.70;;;;;;;17.14;58.60;101368.94;105594;1270;97911;-82
2023/06/05 06:42:36;;;;;;;4.20;2.20;;;;;;;17.28;57.77;101369.91;105321;1273;101351;-82
2023/06/05 06:45:35;;;;;;;5.70;2.20;;;;;;;17.41;57.89;101370.83;105229;1273;99110;-82
2023/06/05 06:48:21;;;;;;;7.10;1.80;;;;;;;17.54;57.60;101373.16;105414;1268;98412;-82
2023/06/05 06:51:06;;;;;;;4.10;1.80;;;;;;;17.69;57.76;101371.95;105555;1270;97912;-82
2023/06/05 06:53:52;;;;;;;5.90;1.90;;;;;;;17.85;57.20;101372.34;105480;1269;98509;-83
2023/06/05 06:56:37;;;;;;;4.50;2.30;;;;;;;17.97;56.19;101371.61;105334;1275;101553;-83
2023/06/05 06:59:23;;;;;;;9.00;2.10;;;;;;;18.08;55.34;101374.09;105352;1273;100020;-83
2023/06/05 07:02:13;;;;;;;3.50;2.10;;;;;;;18.19;55.80;101367.02;105465;1269;97920;-83
2023/06/05 07:04:59;;;;;;;3.20;1.80;;;;;;;18.31;54.68;101368.54;105444;1269;97989;-83
2023/06/05 07:07:44;;;;;;;7.40;1.80;;;;;;;18.44;54.70;101372.98;105462;1269;98403;-83
2023/06/05 07:10:29;;;;;;;5.70;1.70;;;;;;;18.55;53.50;101372.16;105593;1270;101370;-83
2023/06/05 07:13:15;;;;;;;5.90;1.70;;;;;;;18.62;52.29;101371.81;105451;1273;100427;-82
2023/06/05 07:16:01;;;;;;;6.30;1.60;;;;;;;18.70;52.67;101368.49;105270;1268;98487;-82
2023/06/05 07:18:46;;;;;;;7.20;1.60;;;;;;;18.80;52.54;101372.29;105453;1270;97978;-82
2023/06/05 07:21:37;;;;;;;3.30;1.30;;;;;;;18.90;51.50;101376.04;105348;1269;98033;-82
2023/06/05 07:24:25;;;;;;;6.70;1.70;;;;;;;19.02;50.93;101377.02;105414;1269;101336;-82
2023/06/05 07:27:10;;;;;;;4.30;1.20;;;;;;;19.16;50.89;101374.59;105414;1270;99098;-82
2023/06/05 07:29:55;;;;;;;5.10;1.50;;;;;;;19.29;50.43;101370.70;105521;1269;98058;-83
2023/06/05 07:32:42;;;;;;;4.90;1.50;;;;;;;19.36;49.48;101368.34;105325;1274;98140;-81
2023/06/05 07:35:28;;;;;;;4.30;1.50;;;;;;;19.45;49.23;101369.92;105336;1273;99639;-83
2023/06/05 07:38:14;;;;;;;8.90;1.70;;;;;;;19.55;48.75;101371.52;105362;1269;102651;-83
2023/06/05 07:41:01;;;;;;;5.80;2.20;;;;;;;19.67;48.22;101371.55;105391;1268;99279;-83
2023/06/05 07:43:47;;;;;;;2.90;1.10;;;;;;;19.77;48.09;101370.17;105463;1269;98886;-84
2023/06/05 07:46:33;;;;;;;4.40;1.10;;;;;;;19.85;47.77;101370.33;105500;1273;97946;-83
2023/06/05 07:49:19;;;;;;;6.50;1.80;;;;;;;19.94;47.40;101371.16;105468;1269;98071;-83
2023/06/05 07:52:04;;;;;;;5.30;1.10;;;;;;;20.04;47.51;101370.10;105264;1270;101477;-83
2023/06/05 07:54:50;;;;;;;3.20;1.10;;;;;;;20.10;45.45;101366.73;105516;1268;99202;-82
2023/06/05 07:57:37;;;;;;;4.10;1.40;;;;;;;20.14;44.85;101368.80;105446;1274;98004;-82
2023/06/05 08:00:24;;;;;;;2.20;1.20;;;;;;;20.23;44.28;101365.05;105447;1268;97783;-82
2023/06/05 08:03:10;;;;;;;7.30;1.30;;;;;;;20.32;44.23;101367.15;105394;1268;97128;-82
2023/06/05 08:05:55;;;;;;;3.10;1.30;;;;;;;20.40;43.71;101366.53;105513;1268;101837;-82
2023/06/05 08:08:42;;;;;;;3.40;1.20;;;;;;;20.42;43.27;101365.56;105388;1268;100371;-83
2023/06/05 08:11:28;;;;;;;2.50;1.00;;;;;;;20.46;42.82;101367.85;105533;1272;97887;-83
2023/06/05 08:14:13;;;;;;;2.80;0.80;;;;;;;20.50;41.24;101367.20;105584;1272;97897;-82
2023/06/05 08:16:59;;;;;;;3.50;1.20;;;;;;;20.54;40.73;101368.92;105584;1270;99657;-83
2023/06/05 08:19:44;;;;;;;2.30;0.90;;;;;;;20.62;41.11;101368.54;105613;1269;101376;-82
2023/06/05 08:22:30;;;;;;;2.90;0.90;;;;;;;20.71;40.68;101369.38;105480;1269;99106;-82
2023/06/05 08:25:16;;;;;;;6.30;1.30;;;;;;;20.75;39.58;101364.88;105531;1269;98571;-83
2023/06/05 08:28:01;;;;;;;5.80;1.10;;;;;;;20.80;39.81;101361.42;105423;1269;97909;-83
2023/06/05 08:30:46;;;;;;;3.00;1.40;;;;;;;20.89;39.87;101367.36;105462;1271;98698;-81
2023/06/05 08:33:36;;;;;;;5.50;1.30;;;;;;;20.96;39.72;101363.72;105350;1273;101372;-83
2023/06/05 08:36:23;;;;;;;4.40;1.40;;;;;;;20.99;39.68;101365.25;105700;1269;99149;-83
2023/06/05 08:39:10;;;;;;;4.00;1.50;;;;;;;21.07;39.68;101364.59;105383;1269;99308;-83
2023/06/05 08:41:59;;;;;;;2.30;1.20;;;;;;;21.20;39.87;101362.67;105260;1269;97858;-83
2023/06/05 08:44:48;;;;;;;5.00;0.90;;;;;;;21.30;39.19;101356.41;105334;1269;97706;-82
2023/06/05 08:47:38;;;;;;;3.90;1.50;;;;;;;21.34;39.60;101354.23;105468;1269;101388;-83
2023/06/05 08:50:26;;;;;;;3.20;1.10;;;;;;;21.39;39.01;101356.28;105399;1273;100602;-83
2023/06/05 08:53:12;;;;;;;2.50;0.90;;;;;;;21.43;38.60;101357.03;105373;1271;97915;-83
2023/06/05 08:55:58;;;;;;;1.60;0.90;;;;;;;21.45;37.72;101356.69;105361;1273;97883;-83
2023/06/05 08:58:45;;;;;;;2.10;0.90;;;;;;;21.43;36.83;101349.07;105374;1270;98423;-83
2023/06/05 09:01:32;;;;;;;5.20;1.50;;;;;;;21.40;36.26;101347.96;105268;1273;102113;-82
2023/06/05 09:04:17;;;;;;;3.10;1.20;;;;;;;21.45;37.39;101354.40;105411;1271;100304;-82
2023/06/05 09:07:04;;;;;;;4.90;1.10;;;;;;;21.49;36.66;101355.53;105357;1269;98524;-82
2023/06/05 09:09:49;;;;;;;2.00;1.00;;;;;;;21.54;37.06;101354.75;105323;1269;98028;-82
2023/06/05 09:12:55;;;;;;;4.60;1.20;;;;;;;21.61;37.07;101354.04;105346;1268;97961;-82
2023/06/05 09:15:40;;;;;;;2.10;1.00;;;;;;;21.72;38.30;101353.80;105357;1268;101367;-83
2023/06/05 09:18:28;;;;;;;1.20;0.90;;;;;;;21.83;37.64;101354.68;105399;1273;99118;-83
2023/06/05 09:21:15;;;;;;;3.10;1.20;;;;;;;21.89;36.62;101351.03;105561;1273;98603;-82
2023/06/05 09:24:15;;;;;;;2.30;0.90;;;;;;;21.90;36.26;101346.86;105621;1269;97999;-82
2023/06/05 09:27:11;;;;;;;5.10;0.80;;;;;;;21.94;36.65;101345.80;105504;1272;98039;-81
2023/06/05 09:30:04;;;;;;;1.60;1.00;;;;;;;22.05;37.26;101343.55;105670;1268;101952;-81
2023/06/05 09:32:50;;;;;;;2.90;0.90;;;;;;;22.19;36.82;101341.89;105393;1273;99286;-82
2023/06/05 09:35:38;;;;;;;2.70;1.00;;;;;;;22.24;35.98;101336.36;105418;1273;98003;-82
2023/06/05 09:38:27;;;;;;;6.20;1.20;;;;;;;22.27;35.66;101333.80;105635;1268;99472;-82
2023/06/05 09:41:20;;;;;;;6.80;1.20;;;;;;;22.32;35.39;101336.08;105378;1268;97707;-83
2023/06/05 09:44:07;;;;;;;2.70;1.00;;;;;;;22.41;35.47;101337.05;105524;1268;101337;-82
2023/06/05 09:46:57;;;;;;;3.70;1.40;;;;;;;22.51;35.37;101337.55;105405;1269;100806;-82
2023/06/05 09:49:43;;;;;;;1.90;0.90;;;;;;;22.61;35.44;101332.33;105547;1268;99440;-82
2023/06/05 09:52:29;;;;;;;1.20;0.90;;;;;;;22.64;34.56;101331.84;105457;1269;97919;-82
2023/06/05 09:55:15;;;;;;;3.20;1.00;;;;;;;22.63;36.00;101329.50;105631;1270;97987;-82
2023/06/05 09:58:10;;;;;;;3.10;1.20;;;;;;;22.69;35.55;101324.95;105675;1269;101372;-80
2023/06/05 10:01:00;;;;;;;3.60;1.00;;;;;;;22.74;36.02;101325.02;105548;1269;99117;-81
2023/06/05 10:03:57;;;;;;;3.40;1.30;;;;;;;22.84;35.62;101325.58;105491;1270;98476;-80
2023/06/05 10:06:44;;;;;;;1.50;1.20;;;;;;;22.93;35.84;101324.02;105686;1272;98853;-82
2023/06/05 10:09:34;;;;;;;4.70;1.10;;;;;;;22.99;35.69;101319.69;105549;1269;99333;-82
2023/06/05 10:12:20;;;;;;;2.80;1.00;;;;;;;23.10;35.11;101319.84;105542;1268;102592;-81
2023/06/05 10:15:07;;;;;;;0.90;0.80;;;;;;;23.16;34.60;101314.40;105479;1269;99121;-81
2023/06/05 10:17:54;;;;;;;2.10;1.00;;;;;;;23.16;34.62;101311.60;105424;1272;98932;-82
2023/06/05 10:20:40;;;;;;;2.40;0.90;;;;;;;23.11;33.29;101310.50;105387;1270;98679;-83
2023/06/05 10:23:27;;;;;;;6.40;1.20;;;;;;;23.08;33.64;101305.05;105500;1268;98012;-81
2023/06/05 10:26:21;;;;;;;3.60;1.40;;;;;;;23.11;34.86;101303.77;105658;1272;101376;-82
2023/06/05 10:29:30;;;;;;;3.50;1.30;;;;;;;23.17;34.18;101307.03;105638;1270;99265;-82
2023/06/05 10:32:34;;;;;;;2.60;1.00;;;;;;;23.24;34.18;101302.15;105504;1270;99034;-83
2023/06/05 10:35:50;;;;;;;2.60;1.00;;;;;;;23.32;34.08;101302.45;105661;1273;97955;-81
2023/06/05 10:38:39;;;;;;;3.60;1.00;;;;;;;23.42;33.86;101300.33;105589;1271;98414;-82
2023/06/05 10:41:25;;;;;;;3.40;0.90;;;;;;;23.45;33.41;101298.30;105406;1268;101486;-82
2023/06/05 10:44:12;;;;;;;4.80;1.20;;;;;;;23.48;33.91;101301.46;105550;1268;100441;-83
2023/06/05 10:46:58;;;;;;;1.40;0.80;;;;;;;23.58;33.57;101295.30;106658;1267;97862;-82
2023/06/05 10:50:19;;;;;;;2.50;1.20;;;;;;;23.71;32.49;101296.48;105743;1274;97972;-82
2023/06/05 10:53:04;;;;;;;2.80;1.00;;;;;;;23.80;32.20;101295.15;105708;1269;97876;-81
2023/06/05 10:55:50;;;;;;;2.20;1.00;;;;;;;23.80;32.46;101287.83;105550;1268;101329;-83
2023/06/05 10:58:55;;;;;;;3.50;1.00;;;;;;;23.75;31.91;101289.04;105430;1269;100542;-82
2023/06/05 11:01:42;;;;;;;2.80;1.10;;;;;;;23.76;32.85;101285.27;105462;1274;97887;-82
2023/06/05 11:04:47;;;;;;;3.40;1.00;;;;;;;23.85;32.67;101285.75;105604;1268;97894;-82
2023/06/05 11:07:34;;;;;;;4.50;1.50;;;;;;;23.95;32.75;101287.98;105474;1269;98007;-83
2023/06/05 11:10:21;;;;;;;1.80;0.90;;;;;;;24.07;32.47;101287.64;105569;1268;101499;-83
2023/06/05 11:13:07;;;;;;;2.70;1.40;;;;;;;24.18;32.90;101284.47;105507;1274;100091;-82
2023/06/05 11:15:56;;;;;;;2.40;1.00;;;;;;;24.26;32.21;101283.93;105300;1269;99005;-82
2023/06/05 11:18:42;;;;;;;2.70;1.10;;;;;;;24.28;32.62;101277.77;105774;1273;97960;-83
2023/06/05 11:22:07;;;;;;;2.50;0.90;;;;;;;24.33;33.37;101274.32;105399;1269;98577;-83
2023/06/05 11:25:15;;;;;;;5.30;1.10;;;;;;;24.33;32.31;101269.27;105471;1271;101369;-81
2023/06/05 11:28:07;;;;;;;4.10;1.20;;;;;;;24.34;32.72;101267.86;105378;1268;100463;-82
2023/06/05 11:30:53;;;;;;;5.10;1.30;;;;;;;24.37;32.61;101260.99;105265;1274;278038;-81
2023/06/05 11:33:38;;;;;;;4.90;1.50;;;;;;;24.40;32.13;101260.62;105376;1272;97930;-82
2023/06/05 11:36:25;;;;;;;2.20;1.00;;;;;;;24.45;31.19;101260.71;105502;1269;98509;-82
2023/06/05 11:39:11;;;;;;;3.30;1.30;;;;;;;24.49;31.52;101258.39;105365;1269;101387;-83
2023/06/05 11:41:56;;;;;;;4.70;1.80;;;;;;;24.55;32.31;101256.95;105449;1274;99124;-81
2023/06/05 11:44:42;;;;;;;3.30;1.20;;;;;;;24.59;32.39;101257.58;105484;1268;97943;-82
2023/06/05 11:47:29;;;;;;;2.10;1.40;;;;;;;24.66;31.51;101259.30;106147;1274;98966;-82
2023/06/05 11:50:16;;;;;;;2.90;1.80;;;;;;;24.75;31.36;101258.39;106569;1268;95891;-84
2023/06/05 11:53:11;;;;;;;3.00;1.20;;;;;;;24.73;31.23;101254.58;105091;1275;101449;-82
2023/06/05 11:58:54;;;;;;;3.80;1.50;;;;;;;24.81;31.07;101250.38;106548;1269;99367;-82
2023/06/05 12:01:43;;;;;;;1.70;1.20;;;;;;;24.87;31.09;101248.77;105539;1273;98079;-82
2023/06/05 12:08:21;;;;;;;4.20;1.40;;;;;;;24.98;31.22;101241.70;105266;1271;101472;-82
2023/06/05 12:11:25;;;;;;;4.40;1.20;;;;;;;25.02;31.91;101240.06;105205;1271;99021;-81
2023/06/05 12:14:12;;;;;;;2.40;1.20;;;;;;;25.10;32.04;101239.67;105211;1271;98482;-83
2023/06/05 12:16:59;;;;;;;4.40;1.30;;;;;;;25.19;30.94;101237.02;105202;1276;98020;-82
2023/06/05 12:19:52;;;;;;;2.00;1.10;;;;;;;25.26;30.45;101237.17;105085;1274;98408;-83
2023/06/05 12:22:38;;;;;;;4.30;1.20;;;;;;;25.36;30.34;101233.96;105224;1271;102107;-82
2023/06/05 12:25:23;;;;;;;2.20;1.30;;;;;;;25.37;29.88;101230.41;105246;1271;99979;-82
2023/06/05 12:28:19;;;;;;;4.20;1.20;;;;;;;25.40;30.19;101229.20;105035;1271;98474;-82
2023/06/05 12:31:05;;;;;;;5.10;1.60;;;;;;;25.37;29.44;101230.23;105069;1274;98516;-83
2023/06/05 12:33:51;;;;;;;2.90;1.20;;;;;;;25.39;30.06;101224.65;105158;1271;98015;-82
2023/06/05 12:36:41;;;;;;;5.50;1.20;;;;;;;25.48;30.71;101222.14;105172;1271;101390;-83
2023/06/05 12:39:26;;;;;;;6.20;1.50;;;;;;;25.58;30.65;101220.73;105186;1276;99795;-82
2023/06/05 12:42:12;;;;;;;2.80;1.00;;;;;;;25.65;30.76;101218.27;105130;1271;98009;-83
2023/06/05 12:44:58;;;;;;;5.90;1.00;;;;;;;25.70;30.76;101217.03;105173;1271;97991;-82
2023/06/05 12:47:43;;;;;;;2.80;1.10;;;;;;;25.75;30.60;101216.83;105255;1274;98507;-82
2023/06/05 12:50:29;;;;;;;5.10;1.20;;;;;;;25.85;30.61;101217.50;105243;1271;102092;-83
2023/06/05 12:53:15;;;;;;;4.20;1.10;;;;;;;25.95;30.60;101216.95;105144;1271;100385;-83
2023/06/05 12:56:00;;;;;;;3.30;1.20;;;;;;;26.02;30.12;101215.96;105212;1271;99018;-83
2023/06/05 12:58:46;;;;;;;4.60;1.00;;;;;;;26.04;30.13;101210.71;105155;1271;98027;-83